createdAt,value
2017-08-11T00:00:23.642Z,17.40
2017-08-11T00:02:51.948Z,17.30
2017-08-11T00:05:20.250Z,17.30
2017-08-11T00:07:48.577Z,17.20
2017-08-11T00:10:16.970Z,17.20
2017-08-11T00:12:45.314Z,17.10
2017-08-11T00:15:13.694Z,17.10
2017-08-11T00:17:42.949Z,16.90
2017-08-11T00:20:11.262Z,16.90
2017-08-11T00:22:40.368Z,16.90
2017-08-11T00:25:08.742Z,16.90
2017-08-11T00:27:37.810Z,16.90
2017-08-11T00:30:06.210Z,16.80
2017-08-11T00:32:34.596Z,16.90
2017-08-11T00:35:02.930Z,16.90
2017-08-11T00:37:31.344Z,16.90
2017-08-11T00:39:59.822Z,17.00
2017-08-11T00:42:28.887Z,17.00
2017-08-11T00:44:57.627Z,16.90
2017-08-11T00:47:26.698Z,17.00
2017-08-11T00:49:55.004Z,16.90
2017-08-11T00:52:23.330Z,17.00
2017-08-11T00:54:51.729Z,17.00
2017-08-11T00:57:20.047Z,17.00
2017-08-11T00:59:48.352Z,17.00
2017-08-11T01:02:16.764Z,17.00
2017-08-11T01:04:45.826Z,17.00
2017-08-11T01:07:14.238Z,16.90
2017-08-11T01:09:43.342Z,17.00
2017-08-11T01:12:11.807Z,17.00
2017-08-11T01:14:40.183Z,17.00
2017-08-11T01:17:08.491Z,17.10
2017-08-11T01:19:36.812Z,17.10
2017-08-11T01:22:05.123Z,17.00
2017-08-11T01:24:34.326Z,17.00
2017-08-11T01:27:03.303Z,17.00
2017-08-11T01:29:32.411Z,16.90
2017-08-11T01:32:01.483Z,16.90
2017-08-11T01:34:29.786Z,16.80
2017-08-11T01:36:58.173Z,16.80
2017-08-11T01:39:26.644Z,16.80
2017-08-11T01:41:54.935Z,16.70
2017-08-11T01:44:23.285Z,16.70
2017-08-11T01:46:52.394Z,16.60
2017-08-11T01:49:20.958Z,16.50
2017-08-11T01:51:49.338Z,16.60
2017-08-11T01:54:18.442Z,16.50
2017-08-11T01:56:46.813Z,16.50
2017-08-11T01:59:15.139Z,16.50
2017-08-11T02:01:43.787Z,16.50
2017-08-11T02:04:12.851Z,16.40
2017-08-11T02:06:41.175Z,16.40
2017-08-11T02:09:09.483Z,16.40
2017-08-11T02:11:37.909Z,16.40
2017-08-11T02:14:06.236Z,16.30
2017-08-11T02:16:34.569Z,16.30
2017-08-11T02:19:02.925Z,16.30
2017-08-11T02:21:32.027Z,16.10
2017-08-11T02:24:01.098Z,16.00
2017-08-11T02:26:29.434Z,16.00
2017-08-11T02:28:57.755Z,16.00
2017-08-11T02:31:26.163Z,15.90
2017-08-11T02:33:55.319Z,15.80
2017-08-11T02:36:23.729Z,15.70
2017-08-11T02:38:52.822Z,15.70
2017-08-11T02:41:21.152Z,15.70
2017-08-11T02:43:49.468Z,15.70
2017-08-11T02:46:17.754Z,15.60
2017-08-11T02:48:46.846Z,15.60
2017-08-11T02:51:15.916Z,15.60
2017-08-11T02:53:44.242Z,15.50
2017-08-11T02:56:12.571Z,15.60
2017-08-11T02:58:41.089Z,15.50
2017-08-11T03:01:09.363Z,15.40
2017-08-11T03:03:38.432Z,15.30
2017-08-11T03:06:06.762Z,15.30
2017-08-11T03:08:35.079Z,15.30
2017-08-11T03:11:03.401Z,15.30
2017-08-11T03:13:31.706Z,15.30
2017-08-11T03:16:00.132Z,15.30
2017-08-11T03:18:29.223Z,15.20
2017-08-11T03:20:58.382Z,15.20
2017-08-11T03:23:26.678Z,15.20
2017-08-11T03:25:55.115Z,15.20
2017-08-11T03:28:23.474Z,15.20
2017-08-11T03:30:52.539Z,15.20
2017-08-11T03:33:21.015Z,15.10
2017-08-11T03:35:49.312Z,15.20
2017-08-11T03:38:17.715Z,15.20
2017-08-11T03:40:46.066Z,15.20
2017-08-11T03:43:15.186Z,15.10
2017-08-11T03:45:47.283Z,15.10
2017-08-11T03:48:15.807Z,15.10
2017-08-11T03:50:44.899Z,15.10
2017-08-11T03:53:13.978Z,15.10
2017-08-11T03:55:42.376Z,15.00
2017-08-11T03:58:11.440Z,15.10
2017-08-11T04:00:39.855Z,15.00
2017-08-11T04:03:08.953Z,15.00
2017-08-11T04:05:37.290Z,15.00
2017-08-11T04:08:05.590Z,15.00
2017-08-11T04:10:33.905Z,15.00
2017-08-11T04:13:02.206Z,14.90
2017-08-11T04:15:30.514Z,14.90
2017-08-11T04:17:58.809Z,14.90
2017-08-11T04:20:28.008Z,14.90
2017-08-11T04:22:57.069Z,14.90
2017-08-11T04:25:26.171Z,14.80
2017-08-11T04:27:54.498Z,14.80
2017-08-11T04:30:22.812Z,14.80
2017-08-11T04:32:51.130Z,14.80
2017-08-11T04:35:19.469Z,14.80
2017-08-11T04:37:48.579Z,14.80
2017-08-11T04:40:17.667Z,14.80
2017-08-11T04:42:46.088Z,14.70
2017-08-11T04:45:14.404Z,14.80
2017-08-11T04:47:42.705Z,14.80
2017-08-11T04:50:11.035Z,14.80
2017-08-11T04:52:39.358Z,14.80
2017-08-11T04:55:07.683Z,14.80
2017-08-11T04:57:35.994Z,14.80
2017-08-11T05:00:04.325Z,14.80
2017-08-11T05:02:32.654Z,14.80
2017-08-11T05:05:01.272Z,14.80
2017-08-11T05:07:29.581Z,14.80
2017-08-11T05:09:57.905Z,14.80
2017-08-11T05:12:26.216Z,14.80
2017-08-11T05:14:54.526Z,14.80
2017-08-11T05:17:22.847Z,14.80
2017-08-11T05:19:51.164Z,14.80
2017-08-11T05:22:19.475Z,14.80
2017-08-11T05:24:48.554Z,14.80
2017-08-11T05:27:17.089Z,14.80
2017-08-11T05:29:46.160Z,14.90
2017-08-11T05:32:15.251Z,14.90
2017-08-11T05:34:44.351Z,14.90
2017-08-11T05:37:13.439Z,14.90
2017-08-11T05:39:41.771Z,14.80
2017-08-11T05:42:10.063Z,14.80
2017-08-11T05:44:38.394Z,14.90
2017-08-11T05:47:07.130Z,15.00
2017-08-11T05:49:35.483Z,15.00
2017-08-11T05:52:03.799Z,15.00
2017-08-11T05:54:32.903Z,15.10
2017-08-11T05:57:01.987Z,15.10
2017-08-11T05:59:30.650Z,15.00
2017-08-11T06:01:58.938Z,15.00
2017-08-11T06:04:27.265Z,15.00
2017-08-11T06:06:56.357Z,15.00
2017-08-11T06:09:24.675Z,15.00
2017-08-11T06:11:52.995Z,15.00
2017-08-11T06:14:22.080Z,15.00
2017-08-11T06:16:50.379Z,15.00
2017-08-11T06:19:18.716Z,15.00
2017-08-11T06:21:47.172Z,15.00
2017-08-11T06:24:15.479Z,15.10
2017-08-11T06:26:43.771Z,15.10
2017-08-11T06:29:12.111Z,15.10
2017-08-11T06:31:40.396Z,15.10
2017-08-11T06:34:08.718Z,15.00
2017-08-11T06:36:37.834Z,15.00
2017-08-11T06:39:06.196Z,15.00
2017-08-11T06:41:34.584Z,15.00
2017-08-11T06:44:02.922Z,15.00
2017-08-11T06:46:31.225Z,15.00
2017-08-11T06:49:00.423Z,15.00
2017-08-11T06:51:28.771Z,15.00
2017-08-11T06:53:57.123Z,15.10
2017-08-11T06:56:25.436Z,15.10
2017-08-11T06:58:53.894Z,15.10
2017-08-11T07:01:22.218Z,15.10
2017-08-11T07:03:51.282Z,15.10
2017-08-11T07:06:19.595Z,15.10
2017-08-11T07:08:47.893Z,15.20
2017-08-11T07:11:16.222Z,15.10
2017-08-11T07:13:45.280Z,15.30
2017-08-11T07:16:13.614Z,15.20
2017-08-11T07:18:41.911Z,15.30
2017-08-11T07:21:10.412Z,15.30
2017-08-11T07:23:38.707Z,15.30
2017-08-11T07:26:07.021Z,15.30
2017-08-11T07:28:35.336Z,15.30
2017-08-11T07:31:03.667Z,15.30
2017-08-11T07:33:32.929Z,15.30
2017-08-11T07:36:01.203Z,15.30
2017-08-11T07:38:29.529Z,15.20
2017-08-11T07:40:57.831Z,15.20
2017-08-11T07:43:26.204Z,15.30
2017-08-11T07:45:54.527Z,15.30
2017-08-11T07:48:23.631Z,15.30
2017-08-11T07:50:52.730Z,15.40
2017-08-11T07:53:21.792Z,15.40
2017-08-11T07:55:50.112Z,15.30
2017-08-11T07:58:18.423Z,15.40
2017-08-11T08:00:46.732Z,15.40
2017-08-11T08:07:47.326Z,15.40
2017-08-11T08:10:15.646Z,15.50
2017-08-11T08:12:43.944Z,15.60
2017-08-11T08:15:12.371Z,15.50
2017-08-11T08:17:40.683Z,15.50
2017-08-11T08:20:08.975Z,15.50
2017-08-11T08:22:37.283Z,15.40
2017-08-11T08:25:05.594Z,15.40
2017-08-11T08:27:33.922Z,15.40
2017-08-11T08:30:03.028Z,15.40
2017-08-11T08:32:32.098Z,15.40
2017-08-11T08:35:00.385Z,15.40
2017-08-11T08:37:28.722Z,15.40
2017-08-11T08:39:57.042Z,15.50
2017-08-11T08:42:26.236Z,15.50
2017-08-11T08:44:55.346Z,15.50
2017-08-11T08:47:24.399Z,15.60
2017-08-11T08:49:52.743Z,15.50
2017-08-11T08:52:21.030Z,15.60
2017-08-11T08:54:49.364Z,15.60
2017-08-11T08:57:17.683Z,15.60
2017-08-11T08:59:46.029Z,15.50
2017-08-11T09:02:14.339Z,15.60
2017-08-11T09:04:42.869Z,15.60
2017-08-11T09:07:11.934Z,15.60
2017-08-11T09:09:41.030Z,15.50
2017-08-11T09:12:09.361Z,15.50
2017-08-11T09:14:37.664Z,15.50
2017-08-11T09:17:06.087Z,15.50
2017-08-11T09:19:35.187Z,15.50
2017-08-11T09:22:04.279Z,15.60
2017-08-11T09:24:45.164Z,15.60
2017-08-11T09:27:25.412Z,15.50
2017-08-11T09:30:05.698Z,15.50
2017-08-11T09:32:46.022Z,15.50
2017-08-11T09:35:27.131Z,15.60
2017-08-11T09:37:55.490Z,15.50
2017-08-11T09:40:23.859Z,15.60
2017-08-11T09:42:52.201Z,15.60
2017-08-11T09:45:20.511Z,15.60
2017-08-11T09:47:48.991Z,15.60
2017-08-11T09:50:17.327Z,15.60
2017-08-11T09:52:45.757Z,15.60
2017-08-11T09:55:14.947Z,15.60
2017-08-11T09:57:43.329Z,15.60
2017-08-11T10:00:12.420Z,15.60
2017-08-11T10:02:40.732Z,15.60
2017-08-11T10:05:09.045Z,15.70
2017-08-11T10:07:37.461Z,15.70
2017-08-11T10:10:05.871Z,15.70
2017-08-11T10:12:34.223Z,15.70
2017-08-11T10:15:02.564Z,15.70
2017-08-11T10:17:30.872Z,15.80
2017-08-11T10:19:59.714Z,15.90
2017-08-11T10:22:28.027Z,15.90
2017-08-11T10:24:56.498Z,16.00
2017-08-11T10:27:25.577Z,16.10
2017-08-11T10:29:53.888Z,16.00
2017-08-11T10:32:22.226Z,16.10
2017-08-11T10:34:50.547Z,16.10
2017-08-11T10:37:19.618Z,16.00
2017-08-11T10:39:47.903Z,16.00
2017-08-11T10:42:16.278Z,16.00
2017-08-11T10:44:45.355Z,15.90
2017-08-11T10:47:13.760Z,15.80
2017-08-11T10:49:42.839Z,15.80
2017-08-11T10:52:11.931Z,15.80
2017-08-11T10:54:40.215Z,15.70
2017-08-11T10:57:09.308Z,15.70
2017-08-11T10:59:38.405Z,15.70
2017-08-11T11:02:07.474Z,15.70
2017-08-11T11:04:35.816Z,15.60
2017-08-11T11:07:04.210Z,15.80
2017-08-11T11:09:32.544Z,15.70
2017-08-11T11:12:01.591Z,15.70
2017-08-11T11:14:29.933Z,15.70
2017-08-11T11:16:58.255Z,15.60
2017-08-11T11:19:26.694Z,15.60
2017-08-11T11:21:55.031Z,15.60
2017-08-11T11:24:24.107Z,15.70
2017-08-11T11:26:52.426Z,15.60
2017-08-11T11:29:20.746Z,15.70
2017-08-11T11:31:49.176Z,15.70
2017-08-11T11:34:18.247Z,15.50
2017-08-11T11:36:47.351Z,15.50
2017-08-11T11:39:16.446Z,15.60
2017-08-11T11:41:44.765Z,15.50
2017-08-11T11:44:13.067Z,15.70
2017-08-11T11:46:41.499Z,15.60
2017-08-11T11:49:09.815Z,15.70
2017-08-11T11:51:38.128Z,15.60
2017-08-11T11:54:07.227Z,15.60
2017-08-11T11:56:36.309Z,15.50
2017-08-11T11:59:04.626Z,15.50
2017-08-11T12:01:32.944Z,15.50
2017-08-11T12:04:01.263Z,15.50
2017-08-11T12:06:29.589Z,15.60
2017-08-11T12:08:58.027Z,15.60
2017-08-11T12:11:26.343Z,15.60
2017-08-11T12:13:54.656Z,15.60
2017-08-11T12:16:23.755Z,15.70
2017-08-11T12:18:52.068Z,15.60
2017-08-11T12:21:20.391Z,15.60
2017-08-11T12:23:49.726Z,15.50
2017-08-11T12:26:18.138Z,15.50
2017-08-11T12:28:46.439Z,15.50
2017-08-11T12:31:14.748Z,15.50
2017-08-11T12:33:43.064Z,15.40
2017-08-11T12:36:11.410Z,15.40
2017-08-11T12:38:40.846Z,15.40
2017-08-11T12:41:09.139Z,15.40
2017-08-11T12:43:37.455Z,15.40
2017-08-11T12:46:05.790Z,15.40
2017-08-11T12:48:34.104Z,15.40
2017-08-11T12:51:02.792Z,15.40
2017-08-11T12:53:31.866Z,15.40
2017-08-11T12:56:00.195Z,15.30
2017-08-11T12:58:28.513Z,15.40
2017-08-11T13:00:56.839Z,15.40
2017-08-11T13:03:25.161Z,15.40
2017-08-11T13:05:53.473Z,15.30
2017-08-11T13:08:21.805Z,15.40
2017-08-11T13:10:50.120Z,15.40
2017-08-11T13:13:18.454Z,15.50
2017-08-11T13:15:46.766Z,15.40
2017-08-11T13:18:15.974Z,15.50
2017-08-11T13:20:44.258Z,15.40
2017-08-11T13:23:12.570Z,15.50
2017-08-11T13:25:40.902Z,15.50
2017-08-11T13:28:09.250Z,15.60
2017-08-11T13:30:37.565Z,15.50
2017-08-11T13:33:05.886Z,15.50
2017-08-11T13:35:34.206Z,15.50
2017-08-11T13:38:02.523Z,15.60
2017-08-11T13:40:30.877Z,15.50
2017-08-11T13:42:59.172Z,15.50
2017-08-11T13:45:27.816Z,15.50
2017-08-11T13:47:56.143Z,15.50
2017-08-11T13:50:24.454Z,15.50
2017-08-11T13:52:52.767Z,15.50
2017-08-11T13:55:21.075Z,15.40
2017-08-11T13:57:49.378Z,15.50
2017-08-11T14:00:17.687Z,15.40
2017-08-11T14:02:46.760Z,15.40
2017-08-11T14:05:15.186Z,15.40
2017-08-11T14:07:43.488Z,15.40
2017-08-11T14:10:11.803Z,15.40
2017-08-11T14:12:40.215Z,15.40
2017-08-11T14:15:08.557Z,15.40
2017-08-11T14:17:36.844Z,15.50
2017-08-11T14:20:06.184Z,15.40
2017-08-11T14:22:34.471Z,15.40
2017-08-11T14:25:03.117Z,15.50
2017-08-11T14:27:31.427Z,15.40
2017-08-11T14:29:59.709Z,15.50
2017-08-11T14:32:28.048Z,15.50
2017-08-11T14:34:56.369Z,15.40
2017-08-11T14:37:24.686Z,15.50
2017-08-11T14:39:52.989Z,15.50
2017-08-11T14:42:21.349Z,15.40
2017-08-11T14:44:50.414Z,15.40
2017-08-11T14:47:18.760Z,15.30
2017-08-11T14:49:47.048Z,15.40
2017-08-11T14:52:15.463Z,15.40
2017-08-11T14:54:44.510Z,15.40
2017-08-11T14:57:12.814Z,15.30
2017-08-11T14:59:41.139Z,15.40
2017-08-11T15:02:10.207Z,15.40
2017-08-11T15:04:38.507Z,15.40
2017-08-11T15:07:06.811Z,15.30
2017-08-11T15:09:35.143Z,15.30
2017-08-11T15:12:03.454Z,15.30
2017-08-11T15:14:31.779Z,15.30
2017-08-11T15:17:00.822Z,15.30
2017-08-11T15:19:30.718Z,15.30
2017-08-11T15:21:59.071Z,15.20
2017-08-11T15:24:27.442Z,15.20
2017-08-11T15:26:55.829Z,15.10
2017-08-11T15:29:24.499Z,15.10
2017-08-11T15:31:52.916Z,15.20
2017-08-11T15:34:21.307Z,15.20
2017-08-11T15:36:50.414Z,15.20
2017-08-11T15:39:19.615Z,15.30
2017-08-11T15:41:48.051Z,15.20
2017-08-11T15:44:16.350Z,15.30
2017-08-11T15:46:44.719Z,15.20
2017-08-11T15:49:13.043Z,15.20
2017-08-11T15:51:41.338Z,15.20
2017-08-11T15:54:10.423Z,15.20
2017-08-11T15:56:38.723Z,15.10
2017-08-11T15:59:07.817Z,15.10
2017-08-11T16:01:36.112Z,15.10
2017-08-11T16:04:04.455Z,15.10
2017-08-11T16:06:33.521Z,15.20
2017-08-11T16:09:01.862Z,15.10
2017-08-11T16:11:30.940Z,15.20
2017-08-11T16:14:00.142Z,15.10
2017-08-11T16:16:28.428Z,15.00
2017-08-11T16:18:56.768Z,15.10
2017-08-11T16:21:25.080Z,15.00
2017-08-11T16:23:53.380Z,15.00
2017-08-11T16:26:21.725Z,15.00
2017-08-11T16:28:50.046Z,15.00
2017-08-11T16:31:19.443Z,14.90
2017-08-11T16:33:48.241Z,14.90
2017-08-11T16:36:16.551Z,14.90
2017-08-11T16:38:45.652Z,14.90
2017-08-11T16:41:13.998Z,14.80
2017-08-11T16:43:42.325Z,14.80
2017-08-11T16:46:10.631Z,14.90
2017-08-11T16:48:38.950Z,14.90
2017-08-11T16:51:07.255Z,14.90
2017-08-11T16:53:35.722Z,14.80
2017-08-11T16:56:04.000Z,14.80
2017-08-11T16:58:32.339Z,14.60
2017-08-11T17:01:00.652Z,14.60
2017-08-11T17:03:29.703Z,14.40
2017-08-11T17:05:58.043Z,14.30
2017-08-11T17:08:26.338Z,14.30
2017-08-11T17:10:54.672Z,14.20
2017-08-11T17:13:22.987Z,14.20
2017-08-11T17:15:51.305Z,14.00
2017-08-11T17:18:19.605Z,14.10
2017-08-11T17:20:49.003Z,14.10
2017-08-11T17:23:17.305Z,14.00
2017-08-11T17:25:45.618Z,14.10
2017-08-11T17:28:13.983Z,14.10
2017-08-11T17:30:42.296Z,14.00
2017-08-11T17:33:11.401Z,14.00
2017-08-11T17:35:39.691Z,13.90
2017-08-11T17:38:08.170Z,14.00
2017-08-11T17:40:36.585Z,14.00
2017-08-11T17:43:04.987Z,14.00
2017-08-11T17:45:34.316Z,13.90
2017-08-11T17:48:03.031Z,14.00
2017-08-11T17:50:31.537Z,14.00
2017-08-11T17:52:59.910Z,14.00
2017-08-11T17:55:28.388Z,13.90
2017-08-11T17:57:57.690Z,14.00
2017-08-11T18:00:26.356Z,14.00
2017-08-11T18:02:55.096Z,14.00
2017-08-11T18:05:23.510Z,14.00
2017-08-11T18:07:52.028Z,14.00
2017-08-11T18:10:20.530Z,13.90
2017-08-11T18:12:49.228Z,13.90
2017-08-11T18:15:17.679Z,13.90
2017-08-11T18:17:46.148Z,13.90
2017-08-11T18:20:14.676Z,13.90
2017-08-11T18:22:43.172Z,13.90
2017-08-11T18:25:11.635Z,13.90
2017-08-11T18:27:40.109Z,13.90
2017-08-11T18:30:09.185Z,13.90
2017-08-11T18:32:37.526Z,13.80
2017-08-11T18:35:05.871Z,13.90
2017-08-11T18:37:34.877Z,13.90
2017-08-11T18:40:03.199Z,13.90
2017-08-11T18:42:31.512Z,14.00
2017-08-11T18:44:59.914Z,14.00
2017-08-11T18:47:28.242Z,14.00
2017-08-11T18:49:57.374Z,13.90
2017-08-11T18:52:25.678Z,13.90
2017-08-11T18:54:54.122Z,13.90
2017-08-11T18:57:23.195Z,13.90
2017-08-11T18:59:51.523Z,13.90
2017-08-11T19:02:19.847Z,13.90
2017-08-11T19:04:48.180Z,13.90
2017-08-11T19:07:16.535Z,13.80
2017-08-11T19:09:44.897Z,13.90
2017-08-11T19:12:13.290Z,13.90
2017-08-11T19:14:41.630Z,13.90
2017-08-11T19:17:09.999Z,13.90
2017-08-11T19:19:38.316Z,13.90
2017-08-11T19:22:06.814Z,13.90
2017-08-11T19:24:35.124Z,14.00
2017-08-11T19:27:03.436Z,13.90
2017-08-11T19:29:32.531Z,13.90
2017-08-11T19:32:00.829Z,13.80
2017-08-11T19:34:29.199Z,13.80
2017-08-11T19:36:57.517Z,13.80
2017-08-11T19:39:25.860Z,13.90
2017-08-11T19:41:54.199Z,13.90
2017-08-11T19:44:22.530Z,13.90
2017-08-11T19:46:50.831Z,13.90
2017-08-11T19:49:19.481Z,13.90
2017-08-11T19:51:47.790Z,13.90
2017-08-11T19:54:16.090Z,13.90
2017-08-11T19:56:44.430Z,13.90
2017-08-11T19:59:12.739Z,13.90
2017-08-11T20:01:41.866Z,13.90
2017-08-11T20:04:10.173Z,13.80
2017-08-11T20:06:38.967Z,13.90
2017-08-11T20:09:07.534Z,14.00
2017-08-11T20:11:35.891Z,14.00
2017-08-11T20:14:04.208Z,14.00
2017-08-11T20:16:32.734Z,14.00
2017-08-11T20:19:01.060Z,14.00
2017-08-11T20:21:29.428Z,14.00
2017-08-11T20:23:58.496Z,14.00
2017-08-11T20:26:26.876Z,13.90
2017-08-11T20:28:55.975Z,14.00
2017-08-11T20:31:25.091Z,14.00
2017-08-11T20:33:53.412Z,13.90
2017-08-11T20:36:21.718Z,14.00
2017-08-11T20:38:50.855Z,13.90
2017-08-11T20:41:19.178Z,13.90
2017-08-11T20:43:48.331Z,13.80
2017-08-11T20:46:16.615Z,13.70
2017-08-11T20:48:45.153Z,13.80
2017-08-11T20:51:13.459Z,13.80
2017-08-11T20:53:41.770Z,13.80
2017-08-11T20:56:10.121Z,13.90
2017-08-11T20:58:38.452Z,13.90
2017-08-11T21:01:06.802Z,13.80
2017-08-11T21:03:35.114Z,13.80
2017-08-11T21:06:03.460Z,13.80
2017-08-11T21:08:31.772Z,13.70
2017-08-11T21:11:01.168Z,13.60
2017-08-11T21:13:29.504Z,13.50
2017-08-11T21:15:57.802Z,13.50
2017-08-11T21:18:26.133Z,13.60
2017-08-11T21:20:54.460Z,13.60
2017-08-11T21:23:22.802Z,13.60
2017-08-11T21:25:51.106Z,13.50
2017-08-11T21:28:19.426Z,13.50
2017-08-11T21:30:47.735Z,13.50
2017-08-11T21:33:16.065Z,13.50
2017-08-11T21:35:44.372Z,13.50
2017-08-11T21:38:12.707Z,13.50
2017-08-11T21:40:41.023Z,13.50
2017-08-11T21:43:09.346Z,13.50
2017-08-11T21:45:38.447Z,13.40
2017-08-11T21:48:07.517Z,13.40
2017-08-11T21:50:35.952Z,13.40
2017-08-11T21:53:04.265Z,13.40
2017-08-11T21:55:32.569Z,13.50
2017-08-11T21:58:01.671Z,13.40
2017-08-11T22:00:29.975Z,13.30
2017-08-11T22:02:58.311Z,13.40
2017-08-11T22:05:27.400Z,13.50
2017-08-11T22:07:56.527Z,13.50
2017-08-11T22:10:25.590Z,13.50
2017-08-11T22:12:53.934Z,13.40
2017-08-11T22:15:22.246Z,13.40
2017-08-11T22:17:50.575Z,13.40
2017-08-11T22:20:18.866Z,13.40
2017-08-11T22:22:47.311Z,13.40
2017-08-11T22:25:16.377Z,13.40
2017-08-11T22:27:44.689Z,13.30
2017-08-11T22:30:13.027Z,13.40
2017-08-11T22:32:41.351Z,13.40
2017-08-11T22:35:09.669Z,13.40
2017-08-11T22:37:37.974Z,13.40
2017-08-11T22:40:07.067Z,13.40
2017-08-11T22:42:36.149Z,13.40
2017-08-11T22:45:04.483Z,13.30
2017-08-11T22:47:32.815Z,13.40
2017-08-11T22:50:02.182Z,13.30
2017-08-11T22:52:30.506Z,13.30
2017-08-11T22:54:58.850Z,13.30
2017-08-11T22:57:27.204Z,13.30
2017-08-11T22:59:55.543Z,13.20
2017-08-11T23:02:23.903Z,13.20
2017-08-11T23:04:52.986Z,13.20
2017-08-11T23:07:22.092Z,13.30
2017-08-11T23:09:51.166Z,13.30
2017-08-11T23:12:19.491Z,13.30
2017-08-11T23:14:47.815Z,13.30
2017-08-11T23:17:16.527Z,13.30
2017-08-11T23:19:44.867Z,13.40
2017-08-11T23:22:13.179Z,13.40
2017-08-11T23:24:41.506Z,13.40
2017-08-11T23:27:09.822Z,13.40
2017-08-11T23:29:38.178Z,13.40
2017-08-11T23:32:06.484Z,13.50
2017-08-11T23:34:35.575Z,13.50
2017-08-11T23:37:04.647Z,13.40
2017-08-11T23:39:32.983Z,13.40
2017-08-11T23:42:01.302Z,13.50
2017-08-11T23:44:29.726Z,13.50
2017-08-11T23:46:58.035Z,13.50
2017-08-11T23:49:26.351Z,13.50
2017-08-11T23:51:55.447Z,13.40
2017-08-11T23:54:24.515Z,13.50
2017-08-11T23:56:52.849Z,13.40
2017-08-11T23:59:21.184Z,13.40
